Darstellungsparameter: Aktuell verwendete Einstellungen:
Skalierung der Graphiken ... ?
xyx+y,   Skalierungsfaktor:      Skalierung: Modus: x, Faktor: 1
Darstellungszeitraum ... ?
Vom - - bis: - -   Zeitraum: 03.08.2014 - 02.08.2015
Min/Max/Avg-Anzeige ... ?
Zeige MMA aktuell
Zeige MMA Monat
Zeige MMA alles
Zeige --A aktuell
Zeige --A Monat
Zeige --A alles
Keine MMA-Anzeige
MMA:
Keine MMA-Graphiken
MMA-Basis: 03.08.2014 - 02.08.2015
Quicknavigation für Darstellung... ?
Tage:      1T, 2T, 3T, 5T -1T -2T -3T -5T +1T +2T +3T +5T
Wochen: 1W, 2W, 3W -1W -2W -3W +1W +2W +3W
Monate: 1M, 3M, 6M -1M -3M -6M +1M +3M +6M
Jahre:    1J, 3J, 5J, 10J -1J -3J -5J -10J +1J +3J +5J +10J
Nutze für die Darstellung ... ?
Originaldaten oder ...
Mittelwerte Minima Maxima auf...
Stundenbasis Tagesbasis Wochenbasis
Monatsbasis Jahresbasis      Datenbasis: Mittelwerte auf Tagesbasis
Darstellen als:
Statistik (Auto) Statistik J:M      Darstellung:
Zur Graphik,    zurück zur Übersicht aller Sensoren.
 
Tabellarische Datenbersicht: ?
 
Sensor: Nr:Datum:Temp:Feuchte:Taupunkt:
Aussen-T/F 1 03-08-2014 00:00:00 21.3566 C 81.2743 % 18.02 C
2 04-08-2014 00:00:00 19.00347 C 86.5799 % 16.71 C
3 05-08-2014 00:00:00 18.77049 C 82.0208 % 15.64 C
4 06-08-2014 00:00:00 17.59618 C 84.4201 % 14.94 C
5 07-08-2014 00:00:00 18.9934 C 85.7986 % 16.56 C
6 08-08-2014 00:00:00 18.87604 C 89.5625 % 17.12 C
7 09-08-2014 00:00:00 20.16771 C 80.6076 % 16.73 C
8 10-08-2014 00:00:00 19.0125 C 90.0208 % 17.34 C
9 11-08-2014 00:00:00 17.0066 C 81.0000 % 13.72 C
10 12-08-2014 00:00:00 17.62431 C 72.1944 % 12.56 C
11 13-08-2014 00:00:00 15.97674 C 89.6528 % 14.28 C
12 14-08-2014 00:00:00 16.15426 C 84.3298 % 13.51 C
13 15-08-2014 00:00:00 14.48638 C 92.1720 % 13.23 C
14 16-08-2014 00:00:00 15.13439 C 89.3930 % 13.4 C
15 17-08-2014 00:00:00 16.14062 C 77.5243 % 12.21 C
16 18-08-2014 00:00:00 16.30417 C 74.5313 % 11.77 C
17 19-08-2014 00:00:00 13.79653 C 83.4410 % 11.04 C
18 20-08-2014 00:00:00 12.68681 C 83.0799 % 9.89 C
19 21-08-2014 00:00:00 12.84653 C 82.9965 % 10.03 C
20 22-08-2014 00:00:00 14.04062 C 78.5000 % 10.36 C
21 23-08-2014 00:00:00 14.26875 C 83.3194 % 11.48 C
22 24-08-2014 00:00:00 11.58993 C 93.2465 % 10.54 C
23 25-08-2014 00:00:00 13.23854 C 93.7743 % 12.26 C
24 26-08-2014 00:00:00 14.79479 C 96.8681 % 14.3 C
25 27-08-2014 00:00:00 15.38741 C 91.3237 % 13.98 C
Sensor: Nr:Datum:Temp:Feuchte:Taupunkt:
Aussen-T/F 26 28-08-2014 00:00:00 15.84062 C 93.0556 % 14.72 C
27 29-08-2014 00:00:00 18.05278 C 88.6979 % 16.16 C
28 30-08-2014 00:00:00 16.23299 C 90.9965 % 14.76 C
29 31-08-2014 00:00:00 14.70069 C 92.8125 % 13.55 C
30 01-09-2014 00:00:00 14.60556 C 91.4896 % 13.24 C
31 02-09-2014 00:00:00 14.6191 C 90.6771 % 13.11 C
32 03-09-2014 00:00:00 15.03299 C 89.9549 % 13.4 C
33 04-09-2014 00:00:00 16.74028 C 89.6910 % 15.04 C
34 05-09-2014 00:00:00 18.15903 C 91.3819 % 16.73 C
35 06-09-2014 00:00:00 17.4559 C 92.7604 % 16.27 C
36 07-09-2014 00:00:00 18.08889 C 88.1264 % 16.09 C
37 08-09-2014 00:00:00 17.83403 C 84.0833 % 15.11 C
38 09-09-2014 00:00:00 15.64965 C 81.4410 % 12.48 C
39 10-09-2014 00:00:00 14.27882 C 83.4132 % 11.51 C
40 11-09-2014 00:00:00 14.96111 C 83.0903 % 12.12 C
41 12-09-2014 00:00:00 14.12153 C 84.7257 % 11.59 C
42 13-09-2014 00:00:00 16.12118 C 88.7743 % 14.27 C
43 14-09-2014 00:00:00 16.65196 C 88.0641 % 14.67 C
44 15-09-2014 00:00:00 16.079 C 91.5516 % 14.7 C
45 16-09-2014 00:00:00 16.93264 C 90.1458 % 15.31 C
46 17-09-2014 00:00:00 16.05139 C 92.2118 % 14.79 C
47 18-09-2014 00:00:00 17.4875 C 95.6215 % 16.78 C
48 19-09-2014 00:00:00 18.38993 C 95.2708 % 17.62 C
49 20-09-2014 00:00:00 17.14931 C 96.4583 % 16.58 C
50 21-09-2014 00:00:00 15.46146 C 95.3090 % 14.71 C
Sensor: Nr:Datum:Temp:Feuchte:Taupunkt:
Aussen-T/F 51 22-09-2014 00:00:00 12.53194 C 86.3194 % 10.31 C
52 23-09-2014 00:00:00 9.91146 C 90.8993 % 8.5 C
53 24-09-2014 00:00:00 11.10451 C 89.8056 % 9.5 C
54 25-09-2014 00:00:00 13.67917 C 85.6806 % 11.33 C
55 26-09-2014 00:00:00 14.24896 C 88.9653 % 12.46 C
56 27-09-2014 00:00:00 15.59965 C 91.2743 % 14.18 C
57 28-09-2014 00:00:00 14.22743 C 95.0660 % 13.45 C
58 29-09-2014 00:00:00 15.41493 C 94.8472 % 14.59 C
59 30-09-2014 00:00:00 16.83438 C 93.1875 % 15.73 C
60 01-10-2014 00:00:00 15.87778 C 94.6389 % 15.02 C
61 02-10-2014 00:00:00 14.35799 C 95.7326 % 13.69 C
62 03-10-2014 00:00:00 13.73785 C 95.4063 % 13.02 C
63 04-10-2014 00:00:00 12.86979 C 93.2014 % 11.8 C
64 05-10-2014 00:00:00 12.94097 C 94.0799 % 12.01 C
65 06-10-2014 00:00:00 14.3 C 90.3750 % 12.75 C
66 07-10-2014 00:00:00 13.71806 C 92.2986 % 12.49 C
67 08-10-2014 00:00:00 13.3 C 97.6069 % 12.93 C
68 09-10-2014 00:00:00 15.17173 C 97.6859 % 14.81 C
69 10-10-2014 00:00:00 14.20902 C 96.4000 % 13.64 C
70 11-10-2014 00:00:00 14.77847 C 96.0347 % 14.15 C
71 12-10-2014 00:00:00 12.52744 C 95.6029 % 11.84 C
72 13-10-2014 00:00:00 14.72014 C 96.7569 % 14.21 C
73 14-10-2014 00:00:00 12.54495 C 95.1847 % 11.8 C
74 15-10-2014 00:00:00 11.65639 C 95.3910 % 10.94 C
75 16-10-2014 00:00:00 14.02682 C 94.9818 % 13.24 C
Sensor: Nr:Datum:Temp:Feuchte:Taupunkt:
Aussen-T/F 76 17-10-2014 00:00:00 14.05977 C 93.7854 % 13.07 C
77 18-10-2014 00:00:00 12.49887 C 97.7283 % 12.15 C
78 19-10-2014 00:00:00 15.09722 C 92.7188 % 13.93 C
79 20-10-2014 00:00:00 15.06015 C 83.9885 % 12.38 C
80 21-10-2014 00:00:00 11.78491 C 85.1649 % 9.38 C
81 22-10-2014 00:00:00 8.88438 C 85.2674 % 6.55 C
82 23-10-2014 00:00:00 10.3816 C 87.9444 % 8.47 C
83 24-10-2014 00:00:00 10.59097 C 90.2951 % 9.07 C
84 25-10-2014 00:00:00 11.53056 C 94.5417 % 10.69 C
85 26-10-2014 00:00:00 11.35625 C 95.5278 % 10.67 C
86 27-10-2014 00:00:00 9.22813 C 96.0903 % 8.64 C
87 28-10-2014 00:00:00 7.93681 C 88.3750 % 6.14 C
88 29-10-2014 00:00:00 9.50556 C 91.5347 % 8.2 C
89 30-10-2014 00:00:00 12.10625 C 96.8819 % 11.63 C
90 31-10-2014 00:00:00 12.05903 C 97.0694 % 11.61 C
91 01-11-2014 00:00:00 10.92674 C 98.2674 % 10.66 C
92 02-11-2014 00:00:00 11.24448 C 97.2776 % 10.83 C
93 03-11-2014 00:00:00 13.84028 C 90.1806 % 12.26 C
94 04-11-2014 00:00:00 11.22049 C 96.5521 % 10.69 C
95 05-11-2014 00:00:00 9.33229 C 95.2257 % 8.61 C
96 06-11-2014 00:00:00 6.59514 C 92.6250 % 5.49 C
97 07-11-2014 00:00:00 5.60208 C 94.8160 % 4.84 C
98 08-11-2014 00:00:00 8.8941 C 91.4340 % 7.58 C
99 09-11-2014 00:00:00 6.62257 C 96.8125 % 6.15 C
100 10-11-2014 00:00:00 8.76389 C 96.3715 % 8.22 C
Sensor: Nr:Datum:Temp:Feuchte:Taupunkt:
Aussen-T/F 101 11-11-2014 00:00:00 8.47553 C 95.0106 % 7.72 C
102 12-11-2014 00:00:00 9.50104 C 95.2604 % 8.78 C
103 13-11-2014 00:00:00 9.66736 C 96.6806 % 9.17 C
104 14-11-2014 00:00:00 10.60174 C 90.0313 % 9.04 C
105 15-11-2014 00:00:00 9.75938 C 94.5347 % 8.93 C
106 16-11-2014 00:00:00 8.75674 C 97.4468 % 8.38 C
107 17-11-2014 00:00:00 8.71146 C 97.5799 % 8.35 C
108 18-11-2014 00:00:00 8.62491 C 96.7473 % 8.14 C
109 19-11-2014 00:00:00 8.07465 C 95.9514 % 7.47 C
110 20-11-2014 00:00:00 6.45486 C 94.4826 % 5.63 C
111 21-11-2014 00:00:00 5.36458 C 95.0799 % 4.64 C
112 22-11-2014 00:00:00 5.83576 C 95.7569 % 5.21 C
113 23-11-2014 00:00:00 6.30104 C 96.9931 % 5.86 C
114 24-11-2014 00:00:00 7.36679 C 94.6236 % 6.56 C
115 25-11-2014 00:00:00 3.04781 C 97.7769 % 2.73 C
116 26-11-2014 00:00:00 5.29848 C 89.8182 % 3.77 C
117 27-11-2014 00:00:00 5.85447 C 92.9300 % 4.8 C
118 28-11-2014 00:00:00 5.42203 C 91.8771 % 4.21 C
119 29-11-2014 00:00:00 4.46596 C 89.4070 % 2.88 C
120 30-11-2014 00:00:00 3.88993 C 91.8229 % 2.69 C
121 01-12-2014 00:00:00 3.33299 C 91.1840 % 2.04 C
122 02-12-2014 00:00:00 1.63731 C 91.3192 % 0.38 C
123 03-12-2014 00:00:00 1.74095 C 94.0216 % 0.88 C
124 04-12-2014 00:00:00 2.32917 C 92.6806 % 1.27 C
125 05-12-2014 00:00:00 4.15278 C 92.7500 % 3.09 C
Sensor: Nr:Datum:Temp:Feuchte:Taupunkt:
Aussen-T/F 126 06-12-2014 00:00:00 4.51389 C 95.0174 % 3.79 C
127 07-12-2014 00:00:00 4.32049 C 92.1597 % 3.16 C
128 08-12-2014 00:00:00 3.10625 C 93.1458 % 2.11 C
129 09-12-2014 00:00:00 2.57569 C 96.3472 % 2.05 C
130 10-12-2014 00:00:00 4.42118 C 89.8993 % 2.91 C
131 11-12-2014 00:00:00 6.26736 C 89.8125 % 4.72 C
132 12-12-2014 00:00:00 9.07951 C 85.8507 % 6.84 C
133 13-12-2014 00:00:00 4.45625 C 96.4618 % 3.94 C
134 14-12-2014 00:00:00 2.59063 C 96.5868 % 2.1 C
135 15-12-2014 00:00:00 3.42986 C 93.8646 % 2.54 C
136 16-12-2014 00:00:00 6.12049 C 91.8542 % 4.9 C
137 17-12-2014 00:00:00 6.08021 C 92.4167 % 4.95 C
138 18-12-2014 00:00:00 11.91597 C 90.3021 % 10.38 C
139 19-12-2014 00:00:00 10.45243 C 86.8194 % 8.35 C
140 20-12-2014 00:00:00 5.90764 C 85.4618 % 3.66 C
141 21-12-2014 00:00:00 6.41042 C 88.0833 % 4.59 C
142 22-12-2014 00:00:00 8.375 C 87.5139 % 6.43 C
143 23-12-2014 00:00:00 10.04444 C 85.6222 % 7.75 C
144 24-12-2014 00:00:00 8.3214 C 86.1158 % 6.14 C
145 25-12-2014 00:00:00 5.2875 C 85.6027 % 3.08 C
146 26-12-2014 00:00:00 2.31469 C 97.1259 % 1.91 C
147 27-12-2014 00:00:00 1.46649 C 94.8796 % 0.74 C
148 28-12-2014 00:00:00 -3.09591 C 79.8636 % -6.07 C
149 29-12-2014 00:00:00 -0.46157 C 89.7388 % -1.94 C
150 30-12-2014 00:00:00 2.6765 C 92.5574 % 1.59 C
Sensor: Nr:Datum:Temp:Feuchte:Taupunkt:
Aussen-T/F 151 31-12-2014 00:00:00 2.46053 C 93.8487 % 1.57 C
152 01-01-2015 00:00:00 1.89397 C 96.4741 % 1.39 C
153 02-01-2015 00:00:00 3.6411 C 89.1575 % 2.03 C
154 03-01-2015 00:00:00 1.94125 C 94.7000 % 1.18 C
155 04-01-2015 00:00:00 2.94172 C 93.6503 % 2.02 C
156 05-01-2015 00:00:00 -0.02447 C 95.0904 % -0.71 C
157 06-01-2015 00:00:00 0.48846 C 92.6923 % -0.55 C
158 07-01-2015 00:00:00 2.52604 C 92.4113 % 1.42 C
159 08-01-2015 00:00:00 6.62222 C 92.6632 % 5.52 C
160 09-01-2015 00:00:00 9.27879 C 85.8977 % 7.04 C
161 10-01-2015 00:00:00 13.56872 C 83.0051 % 10.74 C
162 11-01-2015 00:00:00 5.45068 C 76.2432 % 1.61 C
163 12-01-2015 00:00:00 6.91962 C 83.3811 % 4.3 C
164 13-01-2015 00:00:00 10.09231 C 75.4163 % 5.95 C
165 14-01-2015 00:00:00 5.9911 C 84.6525 % 3.61 C
166 15-01-2015 00:00:00 10.14352 C 76.1574 % 6.14 C
167 16-01-2015 00:00:00 6.66424 C 88.4201 % 4.89 C
168 17-01-2015 00:00:00 3.35174 C 91.5660 % 2.11 C
169 18-01-2015 00:00:00 1.91111 C 84.4965 % -0.42 C
170 19-01-2015 00:00:00 0.89028 C 89.3889 % -0.65 C
171 20-01-2015 00:00:00 0.86285 C 90.8576 % -0.46 C
172 21-01-2015 00:00:00 -0.0414 C 88.7123 % -1.68 C
173 22-01-2015 00:00:00 1.45625 C 84.8438 % -0.81 C
174 23-01-2015 00:00:00 1.33299 C 89.6736 % -0.17 C
175 24-01-2015 00:00:00 1.04056 C 91.7189 % -0.15 C
Sensor: Nr:Datum:Temp:Feuchte:Taupunkt:
Aussen-T/F 176 25-01-2015 00:00:00 2.19444 C 94.2396 % 1.37 C
177 26-01-2015 00:00:00 3.05694 C 95.0069 % 2.34 C
178 27-01-2015 00:00:00 3.85208 C 93.6806 % 2.93 C
179 28-01-2015 00:00:00 4.1184 C 90.7604 % 2.75 C
180 29-01-2015 00:00:00 3.03715 C 88.2431 % 1.29 C
181 30-01-2015 00:00:00 1.92569 C 90.3715 % 0.52 C
182 31-01-2015 00:00:00 2.07143 C 87.5437 % 0.23 C
183 01-02-2015 00:00:00 2.04274 C 93.0565 % 1.04 C
184 02-02-2015 00:00:00 2.35794 C 89.0635 % 0.75 C
185 03-02-2015 00:00:00 0.88769 C 90.6462 % -0.46 C
186 04-02-2015 00:00:00 0.04848 C 87.0379 % -1.84 C
187 05-02-2015 00:00:00 -1.86778 C 83.7333 % -4.25 C
188 06-02-2015 00:00:00 0.42153 C 69.7431 % -4.45 C
189 07-02-2015 00:00:00 -0.6316 C 80.7569 % -3.52 C
190 08-02-2015 00:00:00 3.19444 C 81.6701 % 0.37 C
191 09-02-2015 00:00:00 4.06597 C 90.9549 % 2.73 C
192 10-02-2015 00:00:00 4.96528 C 91.7188 % 3.73 C
193 11-02-2015 00:00:00 3.82917 C 87.1771 % 1.9 C
194 12-02-2015 00:00:00 2.75556 C 89.3854 % 1.19 C
195 13-02-2015 00:00:00 2.27396 C 89.2326 % 0.69 C
196 14-02-2015 00:00:00 3.73438 C 86.5382 % 1.7 C
197 15-02-2015 00:00:00 1.72778 C 89.3542 % 0.17 C
198 16-02-2015 00:00:00 1.82744 C 88.4874 % 0.13 C
199 17-02-2015 00:00:00 3.31146 C 88.3646 % 1.58 C
200 18-02-2015 00:00:00 4.09479 C 89.1493 % 2.47 C
Sensor: Nr:Datum:Temp:Feuchte:Taupunkt:
Aussen-T/F 201 19-02-2015 00:00:00 0.94861 C 88.1007 % -0.79 C
202 20-02-2015 00:00:00 6.96389 C 77.7326 % 3.35 C
203 21-02-2015 00:00:00 5.27535 C 85.5972 % 3.06 C
204 22-02-2015 00:00:00 3.72083 C 82.6285 % 1.05 C
205 23-02-2015 00:00:00 3.46944 C 89.0000 % 1.83 C
206 24-02-2015 00:00:00 4.88611 C 84.9757 % 2.58 C
207 25-02-2015 00:00:00 4.28403 C 89.1215 % 2.65 C
208 26-02-2015 00:00:00 6.06354 C 89.7708 % 4.51 C
209 27-02-2015 00:00:00 5.01736 C 91.6632 % 3.78 C
210 28-02-2015 00:00:00 2.37187 C 85.8854 % 0.26 C
211 01-03-2015 00:00:00 7.71493 C 80.8125 % 4.63 C
212 02-03-2015 00:00:00 6.14653 C 79.5556 % 2.88 C
213 03-03-2015 00:00:00 5.52812 C 78.2778 % 2.05 C
214 04-03-2015 00:00:00 4.51771 C 82.8576 % 1.86 C
215 05-03-2015 00:00:00 5.08681 C 83.0556 % 2.45 C
216 06-03-2015 00:00:00 4.14931 C 84.0660 % 1.71 C
217 07-03-2015 00:00:00 4.96007 C 81.3993 % 2.05 C
218 08-03-2015 00:00:00 6.05625 C 83.0174 % 3.4 C
219 09-03-2015 00:00:00 7.81354 C 84.5938 % 5.38 C
220 10-03-2015 00:00:00 5.56319 C 96.8542 % 5.1 C
221 11-03-2015 00:00:00 4.39549 C 87.3090 % 2.48 C
222 12-03-2015 00:00:00 3.92222 C 82.5382 % 1.23 C
223 13-03-2015 00:00:00 4.14514 C 76.4688 % 0.39 C
224 14-03-2015 00:00:00 4.55451 C 82.5729 % 1.85 C
225 15-03-2015 00:00:00 4.61042 C 89.4132 % 3.02 C
Sensor: Nr:Datum:Temp:Feuchte:Taupunkt:
Aussen-T/F 226 16-03-2015 00:00:00 4.68368 C 86.6736 % 2.66 C
227 17-03-2015 00:00:00 7.26632 C 81.9722 % 4.4 C
228 18-03-2015 00:00:00 9.08924 C 80.6424 % 5.94 C
229 19-03-2015 00:00:00 7.62431 C 91.9132 % 6.4 C
230 20-03-2015 00:00:00 8.07465 C 82.3889 % 5.26 C
231 21-03-2015 00:00:00 5.69201 C 90.0000 % 4.18 C
232 22-03-2015 00:00:00 5.19792 C 82.4965 % 2.47 C
233 23-03-2015 00:00:00 3.85521 C 84.2118 % 1.44 C
234 24-03-2015 00:00:00 6.94167 C 81.1181 % 3.93 C
235 25-03-2015 00:00:00 7.68056 C 84.0729 % 5.17 C
236 26-03-2015 00:00:00 7.17257 C 77.3333 % 3.48 C
237 27-03-2015 00:00:00 7.64965 C 74.8472 % 3.48 C
238 28-03-2015 00:00:00 8.51667 C 79.0243 % 5.09 C
239 29-03-2015 00:00:00 11.63659 C 83.7029 % 8.98 C
240 30-03-2015 00:00:00 8.21597 C 71.2222 % 3.32 C
241 31-03-2015 00:00:00 10.06181 C 74.1771 % 5.68 C
242 01-04-2015 00:00:00 6.38924 C 70.3542 % 1.4 C
243 02-04-2015 00:00:00 6.45868 C 73.6250 % 2.1 C
244 03-04-2015 00:00:00 5.87951 C 71.3819 % 1.11 C
245 04-04-2015 00:00:00 6.24896 C 76.7882 % 2.49 C
246 05-04-2015 00:00:00 5.21354 C 69.6042 % 0.12 C
247 06-04-2015 00:00:00 5.33542 C 76.9201 % 1.62 C
248 07-04-2015 00:00:00 5.98646 C 76.3785 % 2.16 C
249 08-04-2015 00:00:00 8.43776 C 77.5594 % 4.75 C
250 09-04-2015 00:00:00 11.19653 C 77.2118 % 7.36 C
Sensor: Nr:Datum:Temp:Feuchte:Taupunkt:
Aussen-T/F 251 10-04-2015 00:00:00 13.22708 C 68.0278 % 7.46 C
252 11-04-2015 00:00:00 12.37118 C 70.6736 % 7.2 C
253 12-04-2015 00:00:00 11.34444 C 70.3090 % 6.14 C
254 13-04-2015 00:00:00 11.50104 C 69.8576 % 6.2 C
255 14-04-2015 00:00:00 13.37778 C 67.0347 % 7.39 C
256 15-04-2015 00:00:00 16.43472 C 63.5799 % 9.51 C
257 16-04-2015 00:00:00 15.04757 C 69.6493 % 9.55 C
258 17-04-2015 00:00:00 11.41736 C 67.7951 % 5.69 C
259 18-04-2015 00:00:00 8.60486 C 64.9931 % 2.41 C
260 19-04-2015 00:00:00 9.50903 C 62.7708 % 2.78 C
261 20-04-2015 00:00:00 12.20312 C 60.9549 % 4.9 C
262 21-04-2015 00:00:00 13.69549 C 60.5278 % 6.21 C
263 22-04-2015 00:00:00 10.77465 C 69.4826 % 5.42 C
264 23-04-2015 00:00:00 10.84062 C 70.1806 % 5.63 C
265 24-04-2015 00:00:00 13.43403 C 62.6701 % 6.46 C
266 25-04-2015 00:00:00 12.95486 C 81.1250 % 9.8 C
267 26-04-2015 00:00:00 15.34444 C 79.1736 % 11.76 C
268 27-04-2015 00:00:00 10.42014 C 94.5868 % 9.59 C
269 28-04-2015 00:00:00 9.15382 C 73.6910 % 4.71 C
270 29-04-2015 00:00:00 8.3059 C 73.2951 % 3.82 C
271 30-04-2015 00:00:00 9.85764 C 80.8819 % 6.73 C
272 01-05-2015 00:00:00 8.17979 C 82.7700 % 5.43 C
273 02-05-2015 00:00:00 9.88958 C 78.1007 % 6.26 C
274 03-05-2015 00:00:00 13.80469 C 89.9856 % 12.19 C
275 04-05-2015 00:00:00 16.61875 C 81.1319 % 13.37 C
Sensor: Nr:Datum:Temp:Feuchte:Taupunkt:
Aussen-T/F 276 05-05-2015 00:00:00 18.45035 C 74.4514 % 13.83 C
277 06-05-2015 00:00:00 13.3566 C 69.4306 % 7.89 C
278 07-05-2015 00:00:00 13.35764 C 65.8646 % 7.12 C
279 08-05-2015 00:00:00 14.46632 C 68.7951 % 8.81 C
280 09-05-2015 00:00:00 15.2441 C 75.9410 % 11.03 C
281 10-05-2015 00:00:00 14.78229 C 75.1944 % 10.44 C
282 11-05-2015 00:00:00 17.12812 C 73.8611 % 12.43 C
283 12-05-2015 00:00:00 18.0309 C 74.6181 % 13.46 C
284 13-05-2015 00:00:00 14.45208 C 67.5590 % 8.53 C
285 14-05-2015 00:00:00 14.14351 C 72.7298 % 9.33 C
286 15-05-2015 00:00:00 15.02882 C 77.6215 % 11.15 C
287 16-05-2015 00:00:00 12.01528 C 78.7569 % 8.45 C
288 17-05-2015 00:00:00 14.18924 C 70.3750 % 8.88 C
289 18-05-2015 00:00:00 15.27535 C 65.6250 % 8.88 C
290 19-05-2015 00:00:00 13.64941 C 60.6403 % 6.19 C
291 20-05-2015 00:00:00 11.71144 C 70.5166 % 6.54 C
292 21-05-2015 00:00:00 11.60764 C 69.7118 % 6.27 C
293 22-05-2015 00:00:00 15.74722 C 61.0868 % 8.27 C
294 23-05-2015 00:00:00 15.85278 C 71.0625 % 10.62 C
295 24-05-2015 00:00:00 17.02887 C 75.7852 % 12.73 C
296 25-05-2015 00:00:00 13.82968 C 88.0452 % 11.89 C
297 26-05-2015 00:00:00 11.87604 C 75.6736 % 7.72 C
298 27-05-2015 00:00:00 11.63958 C 70.3194 % 6.43 C
299 28-05-2015 00:00:00 14.21944 C 69.5104 % 8.73 C
300 29-05-2015 00:00:00 13.27367 C 76.0712 % 9.15 C
Sensor: Nr:Datum:Temp:Feuchte:Taupunkt:
Aussen-T/F 301 30-05-2015 00:00:00 12.66319 C 71.2188 % 7.59 C
302 31-05-2015 00:00:00 14.50903 C 73.4653 % 9.83 C
303 01-06-2015 00:00:00 14.86667 C 79.3472 % 11.33 C
304 02-06-2015 00:00:00 16.57639 C 73.3056 % 11.78 C
305 03-06-2015 00:00:00 17.74965 C 70.8646 % 12.4 C
306 04-06-2015 00:00:00 18.54896 C 65.3993 % 11.94 C
307 05-06-2015 00:00:00 22.1191 C 67.8681 % 15.91 C
308 06-06-2015 00:00:00 19.94028 C 80.0208 % 16.39 C
309 07-06-2015 00:00:00 18.04306 C 59.8576 % 10.13 C
310 08-06-2015 00:00:00 16.17222 C 63.8056 % 9.32 C
311 09-06-2015 00:00:00 14.94792 C 62.4688 % 7.85 C
312 10-06-2015 00:00:00 17.10208 C 66.1146 % 10.73 C
313 11-06-2015 00:00:00 19.95895 C 61.7825 % 12.41 C
314 12-06-2015 00:00:00 19.48699 C 78.0855 % 15.57 C
315 13-06-2015 00:00:00 18.63958 C 85.4028 % 16.14 C
316 14-06-2015 00:00:00 19.07708 C 68.7674 % 13.21 C
317 15-06-2015 00:00:00 17.59271 C 74.7535 % 13.06 C
318 16-06-2015 00:00:00 15.68924 C 63.0868 % 8.69 C
319 17-06-2015 00:00:00 15.5816 C 65.6250 % 9.18 C
320 18-06-2015 00:00:00 17.15625 C 75.1736 % 12.73 C
321 19-06-2015 00:00:00 12.7559 C 82.5104 % 9.86 C
322 20-06-2015 00:00:00 13.05547 C 82.0000 % 10.06 C
323 21-06-2015 00:00:00 15.43396 C 84.8358 % 12.9 C
324 22-06-2015 00:00:00 13.19855 C 87.9273 % 11.24 C
325 23-06-2015 00:00:00 11.71206 C 92.2057 % 10.49 C
Sensor: Nr:Datum:Temp:Feuchte:Taupunkt:
Aussen-T/F 326 24-06-2015 00:00:00 14.96215 C 81.0417 % 11.74 C
327 25-06-2015 00:00:00 17.94306 C 75.7118 % 13.6 C
328 26-06-2015 00:00:00 19.40139 C 78.2465 % 15.52 C
329 27-06-2015 00:00:00 20.26461 C 74.9877 % 15.69 C
330 28-06-2015 00:00:00 18.39741 C 72.8405 % 13.44 C
331 29-06-2015 00:00:00 23.63875 C 61.7438 % 15.87 C
332 30-06-2015 00:00:00 21.94847 C 63.2710 % 14.65 C
333 01-07-2015 00:00:00 24.13993 C 63.3022 % 16.73 C
334 02-07-2015 00:00:00 26.83474 C 64.8246 % 19.66 C
335 03-07-2015 00:00:00 28.2408 C 65.4400 % 21.14 C
336 04-07-2015 00:00:00 27.77951 C 67.8229 % 21.29 C
337 05-07-2015 00:00:00 26.75417 C 64.4028 % 19.47 C
338 06-07-2015 00:00:00 23.89674 C 54.1630 % 14.07 C
339 07-07-2015 00:00:00 23.4251 C 64.1833 % 16.27 C
340 08-07-2015 00:00:00 17.62465 C 71.6944 % 12.45 C
341 09-07-2015 00:00:00 16.50669 C 68.3134 % 10.65 C
342 10-07-2015 00:00:00 17.02947 C 57.6175 % 8.61 C
343 11-07-2015 00:00:00 21.24132 C 54.9340 % 11.83 C
344 12-07-2015 00:00:00 19.0157 C 71.3264 % 13.71 C
345 13-07-2015 00:00:00 17.93777 C 85.0638 % 15.39 C
346 14-07-2015 00:00:00 21.06476 C 74.5551 % 16.37 C
347 15-07-2015 00:00:00 21.59368 C 75.8000 % 17.14 C
348 16-07-2015 00:00:00 24.00382 C 71.6667 % 18.57 C
349 17-07-2015 00:00:00 28.34301 C 50.2206 % 16.99 C
350 18-07-2015 00:00:00 23.63602 C 62.5441 % 16.06 C
Sensor: Nr:Datum:Temp:Feuchte:Taupunkt:
Aussen-T/F 351 19-07-2015 00:00:00 21.84756 C 77.9451 % 17.83 C
352 20-07-2015 00:00:00 22.02667 C 88.1833 % 19.98 C
353 21-07-2015 00:00:00 26.21048 C 69.2476 % 20.13 C
354 22-07-2015 00:00:00 23.3275 C 74.4857 % 18.53 C
355 23-07-2015 00:00:00 20.60312 C 64.9514 % 13.78 C
356 24-07-2015 00:00:00 21.45543 C 69.6180 % 15.67 C
357 25-07-2015 00:00:00 17.38849 C 77.9048 % 13.5 C
358 26-07-2015 00:00:00 15.82244 C 71.9961 % 10.79 C
359 27-07-2015 00:00:00 17.63472 C 81.2604 % 14.39 C
360 28-07-2015 00:00:00 17.16294 C 63.9825 % 10.3 C
361 29-07-2015 00:00:00 17.78846 C 55.9808 % 8.9 C
362 30-07-2015 00:00:00 14.2708 C 74.1720 % 9.74 C
363 31-07-2015 00:00:00 16.9314 C 65.0744 % 10.33 C
364 01-08-2015 00:00:00 19.24097 C 59.1319 % 11.07 C
365 02-08-2015 00:00:00 20.84722 C 61.6979 % 13.23 C

Maximal/Minimal-Werte vom 03.08.2014 - 02.08.2015

Sensor Min Max Avg
Temp
(Aussen-T/F)
-5.3 °C
28-12-2014  22:40:00
38.6 °C
04-07-2015  16:30:00
11.24 °C
Feuchte
(Aussen-T/F)
18 %
17-07-2015  15:55:00
100 %
27-08-2014  08:05:00
83.12 %
Taupunkt
(Aussen-T/F)
-6.07 C
28-12-2014  00:00:00
21.29 C
04-07-2015  00:00:00
8.23 C

Die Daten stammen von einer Davis Vantage Pro 2 Wetter-Station und werden unter Linux mit der Software wview2wettercgi und aufbereitet. Alle Angaben erfolgen ohne Gewähr für ihre Vollständigkeit oder Richtigkeit.
Kontakt: Rainer Krienke krienke@uni-koblenz.de . Meine Webseiten an der Uni Koblenz oder privat.
Version: $Revision: 0.78 $